Noervenich, Germany

8:32 AM CEST on March 28, 2017 (GMT +0200)
Norvenich Air Base | | Change Station

Elev 443 ft 50.83 °N, 6.67 °E | Updated 12 minutes ago

Partly Cloudy
Partly Cloudy
43 °F
Feels Like 38 °F
N
8
Wind Variable Wind from SSE

Today
High -- | Low -- °F
--% Chance of Precip.
Yesterday
High -- | Low -- °F
Precip. -- in
Pressure 30.15 in
Visibility 6.2 miles
Clouds Few 13000 ft
Windchill 38 °F
Dew Point 34 °F
Humidity 70%
Rainfall 0.00 in
Snow Depth Not available.
7:18 AM 7:59 PM
New Moon, 0% visible
METAR ETNN 280620Z 15007KT 9999 FEW130 06/01 Q1021 BLU+
Pressure 30.15 in
Visibility 6.2 miles
Clouds Few 13000 ft
Windchill 38 °F
Dew Point 34 °F
Humidity 70%
Rainfall 0.00 in
Snow Depth Not available.
7:18 AM 7:59 PM
New Moon, 0% visible
METAR ETNN 280620Z 15007KT 9999 FEW130 06/01 Q1021 BLU+

Get Severe Weather Alerts

Thanks for signing up!

Be on the lookout for a verification email in your inbox.

You'll start receiving the daily forecast at 8 AM.

×

10-Day Weather Forecast

×

Almanac

Astronomy

Mar. 28, 2017 Rise Set
Actual Time
Civil Twilight
Nautical Twilight
Astronomical Twilight
Moon
Length of Visible Light
Length of Day
Tomorrow will be .
, % of the Moon is Illuminated

Today's Extremes

Country Highs Country Lows

Community

WunderPhotos

Upload Photos

1,962,540 photos uploaded!

WunderBlog® & News

Nearby

Air Quality

  Air Quality AQ Index Pollutant
Not available.

Snow Depth

Station Depth Elevation

Earthquake Activity

City Distance Mag. Time & Date
Minimum magnitude displayed is 2.5.

Earthquake Activity

City Distance Mag. Time & Date
Minimum magnitude displayed is 2.5.

Coastal Water Temperatures

Place Temperature

Stations

Nearby Weather Stations

Station Location Temp. Windchill Dew Point Humidity Wind Precip. Elev Updated Type